CheckWX is a tool to help pilots better visualize weather data.  It is not intended as a substitute for an official pre-flight weather briefing.

09:51:50 UTC

KSLG METAR
Smith Field Airport
Siloam Springs, Arkansas, USA
Current

1 hour ago

KSLG 200840Z AUTO 19004KT 1SM BR OVC003 01/01 A2984 RMK AO2 FZRANO
Observed
Feb-20 @ 08:40 UTC
Wind
  • 190° at 4 KTS
Visibility
1,609 meters
Flight Rules
LIFR
Conditions
Mist
Cloud Levels
  • Overcast at 300' AGL
Temperature
C / 34°F
Dewpoint
C / 34°F
Humidity
100%
Altimeter
29.84" Hg
Pressure
1010.52 hPa
Previous

1 hour ago

KSLG 200823Z AUTO 19004KT 1SM BR OVC003 01/01 A2984 RMK AO2 FZRANO
Observed
Feb-20 @ 08:23 UTC
Wind
  • 190° at 4 KTS
Visibility
1,609 meters
Flight Rules
LIFR
Conditions
Mist
Cloud Levels
  • Overcast at 300' AGL
Temperature
C / 34°F
Dewpoint
C / 34°F
Humidity
100%
Altimeter
29.84" Hg
Pressure
1010.52 hPa
Previous

2 hours ago

KSLG 200804Z AUTO 00000KT 1 3/4SM BR OVC003 01/01 A2984 RMK AO2 FZRANO
Observed
Feb-20 @ 08:04 UTC
Visibility
2,816 meters
Flight Rules
LIFR
Conditions
Mist
Cloud Levels
  • Overcast at 300' AGL
Temperature
C / 34°F
Dewpoint
C / 34°F
Humidity
100%
Altimeter
29.84" Hg
Pressure
1010.52 hPa